Terminal Aerodrome Forecast
Issued by NWS Memphis, TN

Home | Current Version | Previous Version | Text Only | Print | Product List | Glossary On
Versions: 1 2 3 4 5 6 7 8 9 10 11 12 13 14 15 16 17 18 19
000
FTUS44 KMEG 311120
TAFJBR
TAF
KJBR 311120Z 3112/0112 00000KT P6SM SKC
     FM311400 11005KT P6SM BKN120 OVC250
     FM010400 13003KT P6SM OVC100
     FM010900 17011KT P6SM -RA OVC050=

USA.gov is the U.S. government's official web portal to all federal, state and local government web resources and services.